Time;durP1;ratioP1;P1;durP2;ratioP2;P2;SDS_P1;SDS_P2;PMS_P1;PMS_P2;Temp;Humidity;BMP_temperature;BMP_pressure;BME280_temperature;BME280_humidity;BME280_pressure;Samples;Min_cycle;Max_cycle;Signal;HPM_P1;HPM_P2
2021/10/29 00:01:13;;;;;;;21.52;13.70;;;;;;;;;;5109643;28;20225;-85
2021/10/29 00:03:40;;;;;;;20.08;15.57;;;;;;;;;;5110202;28;20309;-85
2021/10/29 00:06:08;;;;;;;16.50;13.43;;;;;;;;;;5109881;28;20209;-85
2021/10/29 00:08:36;;;;;;;19.23;14.55;;;;;;;;;;5109807;28;20186;-84
2021/10/29 00:11:03;;;;;;;20.27;15.15;;;;;;;;;;5110605;28;20225;-85
2021/10/29 00:13:30;;;;;;;19.48;15.55;;;;;;;;;;5110303;28;21015;-85
2021/10/29 00:15:57;;;;;;;21.00;15.40;;;;;;;;;;5104695;28;20223;-85
2021/10/29 00:18:25;;;;;;;22.02;16.08;;;;;;;;;;5109459;28;20214;-84
2021/10/29 00:20:52;;;;;;;18.73;15.25;;;;;;;;;;5110210;28;20198;-85
2021/10/29 00:23:25;;;;;;;23.65;17.85;;;;;;;;;;5110036;28;20271;-85
2021/10/29 00:25:52;;;;;;;24.73;17.50;;;;;;;;;;5109716;28;20663;-86
2021/10/29 00:28:19;;;;;;;23.00;16.33;;;;;;;;;;5109967;28;20224;-86
2021/10/29 00:30:46;;;;;;;21.40;15.23;;;;;;;;;;5111205;28;20320;-85
2021/10/29 00:33:15;;;;;;;19.50;14.43;;;;;;;;;;5113527;28;20252;-84
2021/10/29 00:35:42;;;;;;;17.85;14.52;;;;;;;;;;5109187;28;20301;-85
2021/10/29 00:38:10;;;;;;;21.75;16.92;;;;;;;;;;5113100;28;20190;-85
2021/10/29 00:40:39;;;;;;;24.52;17.60;;;;;;;;;;5113912;27;20194;-85
2021/10/29 00:43:07;;;;;;;21.35;16.27;;;;;;;;;;5113509;28;20218;-84
2021/10/29 00:45:34;;;;;;;24.02;16.13;;;;;;;;;;5113312;28;20318;-85
2021/10/29 00:48:02;;;;;;;22.50;15.48;;;;;;;;;;5113489;28;20247;-85
2021/10/29 00:50:29;;;;;;;18.95;16.17;;;;;;;;;;5114157;28;20548;-85
2021/10/29 00:52:57;;;;;;;21.50;16.40;;;6.20;99.90;;;;;;5113371;28;20224;-85
2021/10/29 00:55:24;;;;;;;20.13;14.75;;;;;;;;;;5112679;28;20183;-84
2021/10/29 00:57:53;;;;;;;18.15;14.18;;;;;;;;;;5106458;28;20342;-85
2021/10/29 01:00:22;;;;;;;18.63;14.77;;;6.10;99.90;;;;;;5111721;28;20226;-84
2021/10/29 01:02:49;;;;;;;24.38;17.63;;;;;;;;;;5112938;28;20252;-84
2021/10/29 01:05:17;;;;;;;23.10;17.58;;;6.30;99.90;;;;;;5112788;28;20242;-84
2021/10/29 01:07:44;;;;;;;25.65;17.25;;;;;;;;;;5112653;28;20656;-84
2021/10/29 01:10:11;;;;;;;21.73;15.95;;;6.40;99.90;;;;;;5107110;28;20317;-83
2021/10/29 01:12:39;;;;;;;28.65;18.10;;;6.40;99.90;;;;;;5112744;28;20203;-83
2021/10/29 01:15:09;;;;;;;33.25;19.05;;;;;;;;;;5113092;28;20207;-84
2021/10/29 01:17:36;;;;;;;25.55;18.25;;;;;;;;;;5112821;28;20247;-84
2021/10/29 01:20:05;;;;;;;23.70;18.88;;;;;;;;;;5113215;28;20206;-84
2021/10/29 01:22:33;;;;;;;21.73;16.92;;;;;;;;;;5112999;28;20198;-84
2021/10/29 01:25:01;;;;;;;24.13;17.05;;;;;;;;;;5130160;27;20227;-85
2021/10/29 01:27:28;;;;;;;26.88;18.85;;;;;;;;;;5111709;28;20259;-84
2021/10/29 01:29:55;;;;;;;25.60;18.92;;;;;;;;;;5106764;28;20288;-84
2021/10/29 01:32:24;;;;;;;23.35;19.00;;;6.90;99.90;;;;;;5092735;28;20268;-84
2021/10/29 01:34:51;;;;;;;26.60;18.20;;;;;;;;;;5093256;28;20195;-85
2021/10/29 01:37:18;;;;;;;25.60;17.05;;;;;;;;;;5111992;28;20190;-85
2021/10/29 01:39:47;;;;;;;24.48;16.85;;;;;;;;;;5111687;28;20227;-84
2021/10/29 01:42:14;;;;;;;22.65;15.60;;;;;;;;;;5111995;28;20285;-84
2021/10/29 01:44:42;;;;;;;30.70;16.92;;;;;;;;;;5112262;28;20254;-84
2021/10/29 01:47:09;;;;;;;21.70;16.75;;;;;;;;;;5111473;28;20221;-84
2021/10/29 01:49:38;;;;;;;21.77;16.58;;;5.90;99.90;;;;;;5111698;28;20356;-84
2021/10/29 01:52:05;;;;;;;22.02;16.65;;;;;;;;;;5111877;28;20715;-84
2021/10/29 01:54:33;;;;;;;21.17;15.38;;;;;;;;;;5111373;27;20727;-84
2021/10/29 01:57:01;;;;;;;16.77;13.75;;;;;;;;;;5103488;28;20187;-84
2021/10/29 01:59:28;;;;;;;17.95;13.50;;;;;;;;;;5111626;28;20613;-84
2021/10/29 02:01:56;;;;;;;17.30;14.25;;;;;;;;;;5104972;28;20254;-84
2021/10/29 02:04:23;;;;;;;21.95;16.10;;;;;;;;;;5111787;28;20297;-84
2021/10/29 02:06:50;;;;;;;24.63;16.52;;;;;;;;;;5111043;28;20554;-83
2021/10/29 02:09:17;;;;;;;19.13;14.77;;;;;;;;;;5112018;28;20202;-83
2021/10/29 02:11:44;;;;;;;22.50;15.30;;;5.60;99.90;;;;;;5112270;28;20218;-84
2021/10/29 02:14:13;;;;;;;19.42;14.05;;;5.50;99.90;;;;;;5111981;28;20671;-83
2021/10/29 02:16:40;;;;;;;15.88;14.18;;;;;;;;;;5111314;28;20287;-83
2021/10/29 02:19:07;;;;;;;20.00;14.55;;;;;;;;;;5111392;28;20236;-84
2021/10/29 02:21:35;;;;;;;17.30;13.63;;;;;;;;;;5110637;28;20728;-84
2021/10/29 02:24:02;;;;;;;21.35;14.20;;;;;;;;;;5111668;28;20275;-84
2021/10/29 02:26:29;;;;;;;20.33;14.00;;;;;;;;;;5111049;28;20229;-82
2021/10/29 02:28:56;;;;;;;20.85;16.13;;;;;;;;;;5111542;28;20734;-83
2021/10/29 02:31:26;;;;;;;20.20;15.40;;;;;;;;;;5111357;28;20195;-84
2021/10/29 02:33:53;;;;;;;20.48;15.50;;;;;;;;;;5111291;28;20205;-82
2021/10/29 02:36:20;;;;;;;21.88;14.93;;;;;;;;;;5111062;28;20288;-82
2021/10/29 02:38:48;;;;;;;22.42;15.73;;;;;;;;;;5111494;28;20284;-83
2021/10/29 02:41:15;;;;;;;18.92;15.00;;;5.50;99.90;;;;;;5111245;28;20663;-83
2021/10/29 02:43:43;;;;;;;18.80;14.82;;;5.40;99.90;;;;;;5111565;28;20293;-83
2021/10/29 02:46:10;;;;;;;19.42;15.38;;;;;;;;;;5111227;28;20194;-84
2021/10/29 02:48:39;;;;;;;21.20;15.38;;;;;;;;;;5110302;28;20712;-85
2021/10/29 02:51:07;;;;;;;18.48;15.25;;;;;;;;;;5110576;28;20225;-84
2021/10/29 02:53:35;;;;;;;21.08;16.05;;;;;;;;;;5110649;28;20252;-85
2021/10/29 02:56:03;;;;;;;21.30;16.83;;;;;;;;;;5099811;28;20707;-85
2021/10/29 02:58:31;;;;;;;21.65;15.88;;;;;;;;;;5110330;28;20194;-84
2021/10/29 03:00:59;;;;;;;22.58;16.67;;;;;;;;;;5109395;28;20200;-83
2021/10/29 03:03:26;;;;;;;22.88;14.95;;;;;;;;;;5110834;28;20221;-83
2021/10/29 03:05:54;;;;;;;23.98;16.58;;;;;;;;;;5110531;28;20274;-83
2021/10/29 03:08:22;;;;;;;18.45;14.80;;;;;;;;;;5109347;28;20236;-82
2021/10/29 03:10:49;;;;;;;20.55;15.48;;;;;;;;;;5110111;28;20761;-84
2021/10/29 03:13:17;;;;;;;21.88;15.02;;;5.40;99.90;;;;;;5110435;28;20233;-84
2021/10/29 03:15:46;;;;;;;33.00;15.60;;;;;;;;;;5109916;28;20279;-84
2021/10/29 03:18:13;;;;;;;21.05;15.07;;;;;;;;;;5110215;28;20231;-84
2021/10/29 03:20:41;;;;;;;22.35;15.57;;;;;;;;;;5110383;28;20183;-83
2021/10/29 03:23:09;;;;;;;22.23;15.90;;;;;;;;;;5109834;28;20202;-84
2021/10/29 03:25:36;;;;;;;19.38;15.50;;;5.30;99.90;;;;;;5109465;28;20256;-84
2021/10/29 03:28:03;;;;;;;21.75;15.82;;;;;;;;;;5109371;28;20263;-83
2021/10/29 03:30:30;;;;;;;21.13;14.40;;;5.30;99.90;;;;;;5110012;28;20197;-84
2021/10/29 03:32:57;;;;;;;20.27;14.82;;;;;;;;;;5090369;28;20234;-83
2021/10/29 03:35:25;;;;;;;17.70;14.95;;;;;;;;;;5106622;28;20683;-83
2021/10/29 03:38:13;;;;;;;20.23;15.15;;;;;;;;;;5109669;28;20814;-83
2021/10/29 03:40:51;;;;;;;18.95;14.65;;;5.00;99.90;;;;;;5109922;28;20560;-83
2021/10/29 03:43:24;;;;;;;17.10;13.80;;;;;;;;;;5110309;28;20244;-83
2021/10/29 03:45:53;;;;;;;15.85;13.65;;;5.20;99.90;;;;;;5109627;28;20729;-84
2021/10/29 03:48:25;;;;;;;15.00;13.30;;;;;;;;;;5109513;28;20197;-83
2021/10/29 03:51:02;;;;;;;21.50;17.25;;;;;;;;;;5104209;28;20597;-84
2021/10/29 03:53:34;;;;;;;17.70;14.90;;;;;;;;;;5110100;28;20203;-83
2021/10/29 03:56:08;;;;;;;20.27;14.93;;;;;;;;;;5103778;28;20199;-83
2021/10/29 03:58:35;;;;;;;19.88;15.85;;;;;;;;;;5108626;28;20201;-82
2021/10/29 04:01:02;;;;;;;19.83;16.15;;;;;;;;;;5109094;28;20297;-83
2021/10/29 04:03:29;;;;;;;24.55;15.88;;;;;;;;;;5110135;28;20228;-83
2021/10/29 04:05:56;;;;;;;20.65;14.75;;;5.20;99.90;;;;;;5114283;28;20297;-83
2021/10/29 04:08:23;;;;;;;22.30;16.60;;;;;;;;;;5113724;28;20193;-83
2021/10/29 04:10:51;;;;;;;23.42;15.25;;;;;;;;;;5114679;28;20190;-83
2021/10/29 04:13:19;;;;;;;18.52;13.90;;;;;;;;;;5113495;28;20218;-83
2021/10/29 04:15:46;;;;;;;22.25;14.60;;;;;;;;;;5113787;28;20267;-83
2021/10/29 04:18:14;;;;;;;22.75;17.73;;;;;;;;;;5112963;28;20226;-83
2021/10/29 04:20:41;;;;;;;23.73;17.42;;;;;;;;;;5114054;28;20277;-84
2021/10/29 04:23:08;;;;;;;22.80;16.27;;;;;;;;;;5113863;28;20187;-83
2021/10/29 04:25:36;;;;;;;22.63;15.90;;;;;;;;;;5113405;28;20226;-83
2021/10/29 04:28:08;;;;;;;23.30;16.52;;;5.50;99.90;;;;;;5113307;28;20251;-83
2021/10/29 04:30:36;;;;;;;21.70;16.30;;;;;;;;;;5101411;28;20221;-84
2021/10/29 04:33:07;;;;;;;18.05;15.48;;;;;;;;;;5107235;28;20636;-83
2021/10/29 04:35:35;;;;;;;24.33;16.48;;;;;;;;;;5113915;28;20201;-83
2021/10/29 04:38:02;;;;;;;24.30;17.08;;;;;;;;;;5112831;28;20202;-83
2021/10/29 04:40:30;;;;;;;23.45;17.23;;;;;;;;;;5113901;28;20567;-84
2021/10/29 04:42:57;;;;;;;23.25;17.23;;;;;;;;;;5113855;28;20291;-84
2021/10/29 04:45:24;;;;;;;21.58;16.65;;;;;;;;;;5113644;28;20748;-84
2021/10/29 04:47:52;;;;;;;18.83;15.90;;;4.90;99.90;;;;;;5105595;28;20198;-84
2021/10/29 04:50:22;;;;;;;25.52;17.25;;;;;;;;;;5092883;28;20225;-83
2021/10/29 04:52:49;;;;;;;21.55;15.07;;;;;;;;;;5113503;28;20193;-84
2021/10/29 04:55:17;;;;;;;22.45;15.45;;;;;;;;;;5113590;28;20292;-84
2021/10/29 04:57:45;;;;;;;18.58;15.07;;;4.80;99.90;;;;;;5112442;28;20300;-84
2021/10/29 05:00:13;;;;;;;21.95;16.13;;;;;;;;;;5112987;28;20292;-82
2021/10/29 05:02:40;;;;;;;23.17;15.43;;;;;;;;;;5113179;28;20201;-83
2021/10/29 05:05:10;;;;;;;18.95;14.88;;;;;;;;;;5106669;28;20240;-83
2021/10/29 05:07:37;;;;;;;19.05;15.38;;;4.70;99.90;;;;;;5112418;28;20270;-83
2021/10/29 05:10:06;;;;;;;20.45;15.25;;;4.70;99.90;;;;;;5113039;28;20243;-84
2021/10/29 05:12:39;;;;;;;22.52;17.65;;;;;;;;;;5112811;28;20234;-83
2021/10/29 05:15:13;;;;;;;21.88;15.52;;;;;;;;;;5112523;28;20209;-83
2021/10/29 05:17:41;;;;;;;17.17;14.10;;;;;;;;;;5115120;27;20207;-83
2021/10/29 05:20:12;;;;;;;16.98;14.55;;;;;;;;;;5111059;28;20291;-83
2021/10/29 05:22:42;;;;;;;21.75;15.40;;;;;;;;;;5111592;28;20232;-84
2021/10/29 05:25:09;;;;;;;16.80;14.88;;;4.90;99.90;;;;;;5110994;28;20225;-84
2021/10/29 05:27:36;;;;;;;16.25;14.18;;;;;;;;;;5110627;28;20259;-84
2021/10/29 05:30:04;;;;;;;18.08;14.02;;;;;;;;;;5111693;28;20193;-84
2021/10/29 05:32:32;;;;;;;25.92;16.00;;;;;;;;;;5111379;28;20672;-84
2021/10/29 05:35:00;;;;;;;19.83;14.30;;;;;;;;;;5108045;28;20185;-83
2021/10/29 05:37:30;;;;;;;20.15;15.10;;;;;;;;;;5099120;28;20846;-84
2021/10/29 05:39:57;;;;;;;18.00;15.05;;;6.10;99.90;;;;;;5110055;28;20671;-83
2021/10/29 05:42:24;;;;;;;25.50;16.27;;;;;;;;;;5112223;27;20223;-82
2021/10/29 05:44:52;;;;;;;21.98;16.08;;;;;;;;;;5108964;28;20369;-82
2021/10/29 05:47:19;;;;;;;20.48;14.30;;;;;;;;;;5109770;28;20273;-83
2021/10/29 05:49:47;;;;;;;18.83;14.32;;;;;;;;;;5107005;28;20227;-84
2021/10/29 05:52:18;;;;;;;21.63;16.10;;;;;;;;;;5108747;28;20200;-83
2021/10/29 05:57:43;;;;;;;23.55;15.48;;;;;;;;;;5047219;28;20206;-83
2021/10/29 06:00:11;;;;;;;21.58;13.90;;;;;;;;;;5103803;27;20871;-83
2021/10/29 06:02:39;;;;;;;15.88;13.45;;;;;;;;;;5115693;27;20262;-83
2021/10/29 06:05:07;;;;;;;18.00;13.35;;;;;;;;;;5112181;28;20219;-83
2021/10/29 06:07:34;;;;;;;15.73;13.23;;;;;;;;;;5111481;28;20205;-83
2021/10/29 06:10:07;;;;;;;17.33;12.70;;;4.90;99.90;;;;;;5111636;28;20213;-84
2021/10/29 06:12:37;;;;;;;13.52;11.90;;;;;;;;;;5111409;28;20202;-83
2021/10/29 06:15:05;;;;;;;16.90;12.15;;;;;;;;;;5109224;28;20196;-84
2021/10/29 06:17:33;;;;;;;14.48;12.10;;;;;;;;;;5107927;28;20474;-83
2021/10/29 06:20:00;;;;;;;18.70;13.85;;;;;;;;;;5111545;28;20300;-83
2021/10/29 06:22:29;;;;;;;19.70;14.48;;;;;;;;;;5111387;28;20549;-84
2021/10/29 06:24:57;;;;;;;18.15;13.57;;;;;;;;;;5110412;28;20273;-83
2021/10/29 06:30:11;;;;;;;18.88;14.32;;;;;;;;;;5105450;28;20732;-83
2021/10/29 06:32:38;;;;;;;15.50;12.43;;;;;;;;;;5111243;28;20236;-82
2021/10/29 06:35:06;;;;;;;14.75;12.40;;;;;;;;;;5108615;27;20268;-83
2021/10/29 06:37:35;;;;;;;17.88;14.15;;;;;;;;;;5109903;28;20264;-83
2021/10/29 06:40:03;;;;;;;17.42;12.80;;;;;;;;;;5106910;28;20205;-83
2021/10/29 06:42:34;;;;;;;16.67;12.32;;;4.80;99.90;;;;;;5110772;28;20209;-82
2021/10/29 06:45:16;;;;;;;23.08;13.88;;;;;;;;;;5105264;28;20237;-82
2021/10/29 06:47:48;;;;;;;19.08;12.85;;;;;;;;;;5111071;28;20196;-81
2021/10/29 07:01:23;;;;;;;18.10;13.10;;;;;;;;;;5110312;28;20195;-84
2021/10/29 07:42:20;;;;;;;19.17;15.88;;;;;;;;;;5107761;28;20210;-85
2021/10/29 07:44:48;;;;;;;19.98;13.95;;;;;;;;;;5109644;28;20194;-83
2021/10/29 07:47:16;;;;;;;18.75;13.00;;;;;;;;;;5109097;28;20696;-84
2021/10/29 07:49:43;;;;;;;22.25;13.80;;;;;;;;;;5109137;28;20660;-86
2021/10/29 07:52:11;;;;;;;16.38;14.02;;;;;;;;;;5110005;28;20247;-85
2021/10/29 07:54:44;;;;;;;14.77;12.43;;;;;;;;;;5103227;28;20851;-86
2021/10/29 07:57:11;;;;;;;16.33;11.98;;;;;;;;;;5108554;28;20194;-84
2021/10/29 07:59:39;;;;;;;16.13;12.38;;;;;;;;;;5108320;28;20236;-83
2021/10/29 08:02:06;;;;;;;16.95;12.48;;;;;;;;;;5106592;28;20201;-83
2021/10/29 08:04:35;;;;;;;16.25;13.15;;;;;;;;;;5109636;28;20568;-83
2021/10/29 08:07:02;;;;;;;17.95;13.93;;;;;;;;;;5108863;28;20264;-83
2021/10/29 08:09:29;;;;;;;18.13;14.07;;;;;;;;;;5107864;28;20186;-84
2021/10/29 08:11:56;;;;;;;20.50;14.50;;;;;;;;;;5104098;28;20218;-82
2021/10/29 08:14:24;;;;;;;16.98;13.20;;;;;;;;;;5108207;28;20285;-83
2021/10/29 08:16:51;;;;;;;18.03;14.07;;;;;;;;;;5108622;28;20668;-85
2021/10/29 08:19:23;;;;;;;15.57;12.73;;;;;;;;;;5109095;28;20676;-85
2021/10/29 08:21:52;;;;;;;13.83;12.27;;;;;;;;;;5108355;28;21164;-83
2021/10/29 08:24:19;;;;;;;16.55;13.50;;;;;;;;;;5109496;28;20676;-83
2021/10/29 08:26:46;;;;;;;20.37;12.97;;;;;;;;;;5108762;28;20580;-83
2021/10/29 08:29:13;;;;;;;15.00;12.17;;;;;;;;;;5109755;28;20608;-84
2021/10/29 08:31:41;;;;;;;20.97;14.50;;;;;;;;;;5109415;28;20616;-85
2021/10/29 08:34:08;;;;;;;13.83;11.90;;;;;;;;;;5109535;28;20592;-83
2021/10/29 08:36:38;;;;;;;17.93;13.40;;;;;;;;;;5108126;28;20645;-82
2021/10/29 08:39:07;;;;;;;19.17;12.67;;;;;;;;;;5099598;28;20644;-84
2021/10/29 08:41:36;;;;;;;15.50;13.20;;;;;;;;;;5098838;28;20644;-83
2021/10/29 08:44:05;;;;;;;15.00;12.27;;;8.80;99.90;;;;;;5097907;28;20663;-83
2021/10/29 08:46:33;;;;;;;16.50;13.43;;;;;;;;;;5107955;28;21048;-82
2021/10/29 08:49:00;;;;;;;16.87;13.03;;;;;;;;;;5107656;28;21085;-84
2021/10/29 08:51:28;;;;;;;13.70;11.63;;;;;;;;;;5113347;28;20616;-85
2021/10/29 08:53:56;;;;;;;15.70;12.87;;;;;;;;;;5112713;28;21094;-84
2021/10/29 08:56:24;;;;;;;12.43;11.10;;;;;;;;;;5109626;28;20617;-85
2021/10/29 08:59:09;;;;;;;14.83;13.23;;;;;;;;;;5111924;28;20959;-85
2021/10/29 09:01:57;;;;;;;19.23;12.20;;;9.20;99.90;;;;;;5111011;28;20651;-84
2021/10/29 09:04:36;;;;;;;14.70;11.43;;;;;;;;;;5112055;28;20747;-86
2021/10/29 09:07:15;;;;;;;16.03;12.60;;;;;;;;;;5105507;28;20667;-84
2021/10/29 09:10:13;;;;;;;15.73;11.60;;;9.10;99.90;;;;;;5111857;28;20647;-84
2021/10/29 09:32:30;;;;;;;15.00;12.43;;;;;;;;;;5111437;28;20646;-85
2021/10/29 09:34:58;;;;;;;17.83;12.20;;;;;;;;;;5110865;28;20620;-85
2021/10/29 09:37:34;;;;;;;14.90;12.50;;;;;;;;;;5110952;28;21012;-84
2021/10/29 09:40:02;;;;;;;13.07;11.70;;;;;;;;;;5100806;28;20612;-85
2021/10/29 09:42:35;;;;;;;16.03;12.90;;;;;;;;;;5100116;28;20642;-85
2021/10/29 09:45:15;;;;;;;18.10;13.60;;;9.90;99.90;;;;;;5094997;28;20656;-84
2021/10/29 09:47:47;;;;;;;17.53;12.53;;;;;;;;;;5105528;28;20624;-85
2021/10/29 09:50:23;;;;;;;12.67;11.30;;;;;;;;;;5111092;28;20635;-85
2021/10/29 09:53:02;;;;;;;20.23;12.70;;;;;;;;;;5093328;28;20624;-84
2021/10/29 09:58:11;;;;;;;16.93;11.30;;;;;;;;;;5106905;28;20638;-84
2021/10/29 10:00:39;;;;;;;12.00;10.80;;;;;;;;;;5107474;28;20681;-85
2021/10/29 10:03:07;;;;;;;19.40;12.93;;;;;;;;;;5100685;28;20627;-85
2021/10/29 10:05:35;;;;;;;14.97;12.73;;;;;;;;;;5110247;28;20643;-84
2021/10/29 10:08:03;;;;;;;12.63;10.30;;;;;;;;;;5109533;28;20627;-84
2021/10/29 10:10:30;;;;;;;13.37;10.23;;;;;;;;;;5111629;27;20665;-84
2021/10/29 10:13:00;;;;;;;12.10;10.97;;;;;;;;;;5110203;28;21250;-83
2021/10/29 10:15:27;;;;;;;13.00;9.83;;;;;;;;;;5096872;28;20617;-84
2021/10/29 10:17:58;;;;;;;12.07;10.17;;;11.10;99.90;;;;;;5090622;28;20649;-84
2021/10/29 10:20:28;;;;;;;15.47;10.47;;;;;;;;;;5092739;28;20667;-85
2021/10/29 10:22:56;;;;;;;11.33;9.63;;;;;;;;;;5090333;28;20640;-85
2021/10/29 10:25:39;;;;;;;14.53;10.10;;;11.20;99.90;;;;;;5098366;28;20984;-85
2021/10/29 10:42:37;;;;;;;9.37;8.07;;;;;;;;;;5092517;28;20633;-85
2021/10/29 10:45:13;;;;;;;9.83;7.80;;;;;;;;;;5090985;28;20601;-85
2021/10/29 10:47:41;;;;;;;10.93;9.40;;;;;;;;;;5105939;28;20691;-84
2021/10/29 10:50:16;;;;;;;11.40;8.10;;;11.80;99.90;;;;;;5104008;28;21197;-84
2021/10/29 10:53:21;;;;;;;9.83;8.63;;;11.90;98.90;;;;;;5096640;28;20620;-83
2021/10/29 10:56:05;;;;;;;10.60;8.57;;;11.90;99.90;;;;;;5104967;28;20635;-83
2021/10/29 10:58:42;;;;;;;10.00;8.70;;;;;;;;;;5090695;28;20624;-84
2021/10/29 11:01:22;;;;;;;12.00;8.07;;;12.20;99.30;;;;;;5090401;28;20629;-84
2021/10/29 11:04:20;;;;;;;9.13;7.93;;;;;;;;;;5095568;28;20624;-84
2021/10/29 11:07:07;;;;;;;8.73;7.93;;;12.40;99.60;;;;;;5109877;27;20732;-83
2021/10/29 11:10:08;;;;;;;7.80;7.07;;;12.40;98.30;;;;;;5099373;28;20625;-84
2021/10/29 11:13:07;;;;;;;8.63;7.20;;;12.40;96.60;;;;;;5089379;28;21246;-83
2021/10/29 11:15:35;;;;;;;8.73;7.23;;;;;;;;;;5108548;28;20652;-84
2021/10/29 11:18:03;;;;;;;8.50;6.97;;;12.60;97.30;;;;;;5104270;28;20691;-83
2021/10/29 11:20:46;;;;;;;8.10;7.17;;;12.60;97.50;;;;;;5103915;28;21131;-82
2021/10/29 11:23:22;;;;;;;6.67;6.03;;;12.60;97.70;;;;;;5098929;28;20732;-82
2021/10/29 11:25:58;;;;;;;7.07;6.37;;;12.90;95.80;;;;;;5101483;28;20644;-84
2021/10/29 11:28:32;;;;;;;8.67;7.73;;;12.90;97.00;;;;;;5093891;28;20630;-83
2021/10/29 11:31:00;;;;;;;7.73;7.03;;;;;;;;;;5097297;28;21199;-84
2021/10/29 11:33:28;;;;;;;7.27;6.27;;;13.00;96.40;;;;;;5110175;28;20616;-83
2021/10/29 11:36:04;;;;;;;8.77;6.27;;;13.00;97.00;;;;;;5101919;28;20688;-83
2021/10/29 11:38:33;;;;;;;11.30;7.73;;;;;;;;;;5102497;28;20652;-83
2021/10/29 11:41:02;;;;;;;6.57;5.97;;;13.10;96.20;;;;;;5106415;28;20632;-84
2021/10/29 11:43:30;;;;;;;7.93;5.67;;;;;;;;;;5103774;28;21219;-84
2021/10/29 11:45:58;;;;;;;6.80;6.10;;;;;;;;;;5109634;28;20620;-84
2021/10/29 11:48:25;;;;;;;7.87;7.07;;;;;;;;;;5108529;28;20662;-82
2021/10/29 11:51:10;;;;;;;7.90;5.90;;;13.20;96.00;;;;;;5106809;28;20707;-83
2021/10/29 11:53:45;;;;;;;11.30;6.17;;;13.20;96.20;;;;;;5097198;28;20616;-83
2021/10/29 11:59:10;;;;;;;10.97;5.97;;;13.30;96.20;;;;;;5106865;28;20627;-83
2021/10/29 12:01:51;;;;;;;6.30;5.67;;;;;;;;;;5095603;28;20644;-84
2021/10/29 12:07:16;;;;;;;9.13;5.90;;;;;;;;;;5108597;28;20649;-83
2021/10/29 12:09:46;;;;;;;9.20;6.50;;;;;;;;;;5109265;28;20624;-83
2021/10/29 12:12:19;;;;;;;7.00;5.80;;;;;;;;;;5109768;28;21235;-84
2021/10/29 12:14:47;;;;;;;5.90;5.33;;;13.70;95.50;;;;;;5088895;28;20649;-83
2021/10/29 12:17:18;;;;;;;7.73;6.70;;;13.70;94.90;;;;;;5088643;28;20636;-82
2021/10/29 12:19:50;;;;;;;7.93;7.00;;;;;;;;;;5104265;28;20649;-83
2021/10/29 12:22:28;;;;;;;14.27;7.00;;;;;;;;;;5108987;28;20620;-81
2021/10/29 12:25:01;;;;;;;43.20;16.03;;;;;;;;;;5110476;28;20623;-83
2021/10/29 12:27:33;;;;;;;6.23;5.70;;;;;;;;;;5111558;28;20658;-84
2021/10/29 12:30:07;;;;;;;8.70;6.03;;;;;;;;;;5091360;28;20632;-82
2021/10/29 12:32:59;;;;;;;8.73;5.80;;;;;;;;;;5093027;28;20697;-85
2021/10/29 12:38:30;;;;;;;6.47;5.60;;;;;;;;;;5091662;28;20975;-84
2021/10/29 12:53:18;;;;;;;7.03;5.83;;;14.20;93.50;;;;;;5096163;28;20720;-83
2021/10/29 12:58:58;;;;;;;6.13;5.63;;;;;;;;;;5102419;28;20682;-83
2021/10/29 13:01:27;;;;;;;7.13;6.43;;;14.30;93.10;;;;;;5114188;28;20746;-85
2021/10/29 13:03:57;;;;;;;6.43;5.83;;;14.40;93.90;;;;;;5095504;28;20612;-85
2021/10/29 13:06:29;;;;;;;8.53;6.33;;;;;;;;;;5092693;28;20680;-84
2021/10/29 13:08:56;;;;;;;7.07;6.30;;;;;;;;;;5116253;28;20622;-84
2021/10/29 13:11:25;;;;;;;9.27;7.27;;;;;;;;;;5113562;28;20612;-84
2021/10/29 13:14:00;;;;;;;6.87;6.23;;;;;;;;;;5097091;28;20625;-85
2021/10/29 13:16:28;;;;;;;6.70;6.10;;;;;;;;;;5104352;28;20751;-84
2021/10/29 13:27:50;;;;;;;8.00;7.30;;;;;;;;;;5069721;28;21010;-82
2021/10/29 13:52:54;;;;;;;9.43;7.03;;;;;;;;;;5049751;28;20627;-81
2021/10/29 13:58:22;;;;;;;7.30;5.70;;;;;;;;;;5095151;28;20710;-82
2021/10/29 14:01:06;;;;;;;6.60;6.00;;;;;;;;;;5099261;28;20959;-83
2021/10/29 14:28:54;;;;;;;17.20;7.57;;;;;;;;;;5091733;28;20612;-82
2021/10/29 14:31:27;;;;;;;9.80;8.80;;;;;;;;;;5106560;28;21160;-83
2021/10/29 14:33:58;;;;;;;12.40;8.87;;;;;;;;;;5093594;28;21260;-82
2021/10/29 14:36:38;;;;;;;13.60;8.90;;;;;;;;;;5091529;28;20621;-83
2021/10/29 14:39:07;;;;;;;17.50;9.20;;;;;;;;;;5092084;28;20652;-82
2021/10/29 14:41:39;;;;;;;10.37;8.53;;;;;;;;;;5101990;28;20724;-83
2021/10/29 14:44:12;;;;;;;12.97;8.47;;;;;;;;;;5110109;28;20630;-83
2021/10/29 14:46:47;;;;;;;13.10;9.20;;;;;;;;;;5108819;28;21162;-83
2021/10/29 14:49:28;;;;;;;12.65;9.18;;;;;;;;;;5109736;28;20724;-83
2021/10/29 14:52:19;;;;;;;15.13;9.17;;;;;;;;;;5091500;28;20223;-81
2021/10/29 15:06:26;;;;;;;8.77;7.70;;;;;;;;;;5086233;27;20738;-83
2021/10/29 15:25:42;;;;;;;8.27;7.47;;;;;;;;;;5082960;28;20692;-82
2021/10/29 15:28:27;;;;;;;10.37;7.80;;;;;;;;;;5068984;28;20639;-83
2021/10/29 15:31:11;;;;;;;7.53;6.77;;;;;;;;;;5063041;28;20675;-84
2021/10/29 15:40:55;;;;;;;12.30;7.50;;;;;;;;;;5067020;28;20973;-83
2021/10/29 15:45:03;;;;;;;8.57;7.13;;;12.70;96.20;;;;;;5073311;28;20685;-83
2021/10/29 15:47:42;;;;;;;7.37;6.63;;;;;;;;;;5066893;28;20713;-83
2021/10/29 15:50:10;;;;;;;7.43;6.63;;;;;;;;;;5067396;28;20741;-83
2021/10/29 15:52:37;;;;;;;8.20;7.33;;;;;;;;;;5078038;28;20694;-83
2021/10/29 15:55:10;;;;;;;10.27;6.73;;;;;;;;;;5083489;28;20717;-83
2021/10/29 15:57:48;;;;;;;9.57;6.90;;;;;;;;;;5064709;28;20630;-83
2021/10/29 16:00:32;;;;;;;7.77;6.70;;;;;;;;;;5083098;28;20633;-83
2021/10/29 16:03:07;;;;;;;11.50;7.57;;;;;;;;;;5069255;28;21222;-83
2021/10/29 16:19:19;;;;;;;9.40;7.70;;;;;;;;;;5067637;28;20755;-82
2021/10/29 16:21:47;;;;;;;12.57;8.53;;;;;;;;;;5056997;28;20188;-82
2021/10/29 16:24:16;;;;;;;7.70;6.90;;;;;;;;;;5072544;28;20641;-82
2021/10/29 16:26:46;;;;;;;8.57;7.67;;;;;;;;;;5054422;28;20635;-82
2021/10/29 16:29:15;;;;;;;8.53;7.00;;;;;;;;;;5062692;28;20740;-82
2021/10/29 16:31:45;;;;;;;10.50;6.20;;;;;;;;;;5064746;28;20686;-83
2021/10/29 16:34:12;;;;;;;10.97;7.60;;;11.30;99.10;;;;;;5036308;28;21024;-83
2021/10/29 16:36:41;;;;;;;11.70;8.10;;;;;;;;;;5044192;28;20619;-82
2021/10/29 16:39:08;;;;;;;13.90;7.43;;;11.20;99.30;;;;;;5040635;28;20630;-82
2021/10/29 16:41:36;;;;;;;9.47;7.17;;;;;;;;;;5040062;28;20631;-82
2021/10/29 16:44:05;;;;;;;10.10;8.40;;;;;;;;;;5038939;28;20615;-82
2021/10/29 16:46:32;;;;;;;11.90;9.00;;;;;;;;;;5049395;28;20656;-82
2021/10/29 16:49:00;;;;;;;9.40;7.37;;;;;;;;;;5046904;28;20721;-82
2021/10/29 16:51:27;;;;;;;7.50;6.80;;;;;;;;;;5045428;28;21183;-82
2021/10/29 16:53:54;;;;;;;14.80;7.60;;;;;;;;;;5045545;28;20627;-82
2021/10/29 16:56:22;;;;;;;11.50;7.90;;;;;;;;;;5045402;28;21597;-82
2021/10/29 16:58:49;;;;;;;8.83;6.60;;;;;;;;;;5047013;28;20654;-82
2021/10/29 17:01:18;;;;;;;8.27;7.03;;;;;;;;;;5050759;28;20626;-82
2021/10/29 17:03:45;;;;;;;8.33;7.53;;;;;;;;;;5057312;28;20991;-82
2021/10/29 17:06:12;;;;;;;9.55;8.40;;;;;;;;;;5054515;28;21187;-82
2021/10/29 17:08:39;;;;;;;8.20;7.30;;;;;;;;;;5054991;28;20253;-82
2021/10/29 17:11:12;;;;;;;10.27;8.68;;;;;;;;;;5052964;28;20753;-81
2021/10/29 17:13:39;;;;;;;12.13;8.82;;;;;;;;;;5053960;28;20818;-81
2021/10/29 17:16:07;;;;;;;12.87;9.10;;;;;;;;;;5051762;28;20626;-82
2021/10/29 17:18:35;;;;;;;10.30;8.70;;;;;;;;;;5050668;28;21513;-81
2021/10/29 17:21:03;;;;;;;10.97;8.13;;;;;;;;;;5056981;28;20685;-82
2021/10/29 17:23:31;;;;;;;11.53;8.07;;;;;;;;;;5050637;28;20619;-83
2021/10/29 17:25:58;;;;;;;10.97;7.90;;;;;;;;;;5053916;28;20811;-83
2021/10/29 17:28:26;;;;;;;9.13;8.00;;;;;;;;;;5047869;28;20638;-83
2021/10/29 17:30:53;;;;;;;12.40;9.43;;;;;;;;;;5056060;28;20622;-83
2021/10/29 17:33:20;;;;;;;11.77;9.40;;;;;;;;;;5054824;28;20970;-83
2021/10/29 17:35:49;;;;;;;10.70;8.30;;;;;;;;;;5050203;28;20719;-83
2021/10/29 17:38:16;;;;;;;13.73;9.10;;;;;;;;;;5069066;28;20634;-83
2021/10/29 17:40:43;;;;;;;12.80;9.60;;;;;;;;;;5068745;28;20685;-83
2021/10/29 17:43:11;;;;;;;16.73;10.17;;;;;;;;;;5058756;28;20684;-83
2021/10/29 17:45:40;;;;;;;10.00;9.00;;;;;;;;;;5057202;28;20701;-83
2021/10/29 17:48:07;;;;;;;10.20;8.63;;;;;;;;;;5053765;28;20627;-82
2021/10/29 17:50:35;;;;;;;16.03;11.00;;;;;;;;;;5054775;28;20777;-82
2021/10/29 17:53:04;;;;;;;12.47;10.07;;;10.50;97.90;;;;;;5058074;28;20619;-82
2021/10/29 17:55:37;;;;;;;12.60;9.37;;;;;;;;;;5046953;28;20655;-82
2021/10/29 17:58:04;;;;;;;15.53;10.67;;;;;;;;;;5030636;28;20631;-83
2021/10/29 18:00:32;;;;;;;13.50;11.37;;;;;;;;;;5044263;28;20971;-82
2021/10/29 18:02:59;;;;;;;16.43;11.43;;;;;;;;;;5057381;28;20998;-82
2021/10/29 18:05:27;;;;;;;13.10;10.70;;;;;;;;;;5054874;28;20666;-82
2021/10/29 18:07:58;;;;;;;16.50;11.20;;;;;;;;;;5050844;28;20713;-82